<?xml version="1.0" encoding="UTF-8" standalone="no" ?>
<gpx xmlns="http://www.topografix.com/GPX/1/1" xmlns:xsi="http://www.w3.org/2001/XMLSchema-instance" xsi:schemaLocation="http://www.topografix.com/GPX/1/1 http://www.topografix.com/GPX/1/1/gpx.xsd" version="1.1" creator="VisuGPX - https://www.visugpx.com">
  <metadata>
    <name>Lacépède 10 km</name>
  </metadata>
  <trk>
    <name><![CDATA[2022 09 08 Lacépède 1 Pierre]]></name>
    <extensions>
      <line xmlns="http://www.topografix.com/GPX/gpx_style/0/2">
        <color>0000FF</color>
        <width>4</width>
      </line>
    </extensions>
    <trkseg>
      <trkpt lat="44.31457" lon="0.46533">
        <ele>90.5</ele>
        <time>2022-09-08T07:07:59.000Z</time>
      </trkpt>
      <trkpt lat="44.31464" lon="0.46502">
        <ele>90.5</ele>
        <time>2022-09-08T07:08:15.000Z</time>
      </trkpt>
      <trkpt lat="44.31469" lon="0.46494">
        <ele>90.6</ele>
        <time>2022-09-08T07:08:23.000Z</time>
      </trkpt>
      <trkpt lat="44.31476" lon="0.46482">
        <ele>90.7</ele>
        <time>2022-09-08T07:08:49.000Z</time>
      </trkpt>
      <trkpt lat="44.31477" lon="0.46466">
        <ele>90.3</ele>
        <time>2022-09-08T07:08:53.000Z</time>
      </trkpt>
      <trkpt lat="44.31479" lon="0.46441">
        <ele>90.3</ele>
        <time>2022-09-08T07:09:01.000Z</time>
      </trkpt>
      <trkpt lat="44.31479" lon="0.46416">
        <ele>90.2</ele>
        <time>2022-09-08T07:09:39.000Z</time>
      </trkpt>
      <trkpt lat="44.31479" lon="0.46405">
        <ele>90</ele>
        <time>2022-09-08T07:09:43.000Z</time>
      </trkpt>
      <trkpt lat="44.31478" lon="0.46398">
        <ele>89.8</ele>
        <time>2022-09-08T07:09:47.000Z</time>
      </trkpt>
      <trkpt lat="44.31469" lon="0.46392">
        <ele>89</ele>
        <time>2022-09-08T07:09:59.000Z</time>
      </trkpt>
      <trkpt lat="44.31459" lon="0.46389">
        <ele>88.5</ele>
        <time>2022-09-08T07:10:48.129Z</time>
      </trkpt>
      <trkpt lat="44.31395" lon="0.46405">
        <ele>88.3</ele>
        <time>2022-09-08T07:11:20.129Z</time>
      </trkpt>
      <trkpt lat="44.31368" lon="0.46415">
        <ele>89.7</ele>
        <time>2022-09-08T07:11:36.129Z</time>
      </trkpt>
      <trkpt lat="44.31277" lon="0.46434">
        <ele>88.7</ele>
        <time>2022-09-08T07:12:42.129Z</time>
      </trkpt>
      <trkpt lat="44.31166" lon="0.46462">
        <ele>88.7</ele>
        <time>2022-09-08T07:14:12.028Z</time>
      </trkpt>
      <trkpt lat="44.31158" lon="0.46465">
        <ele>89.2</ele>
        <time>2022-09-08T07:14:20.028Z</time>
      </trkpt>
      <trkpt lat="44.3115" lon="0.46464">
        <ele>89.5</ele>
        <time>2022-09-08T07:14:28.028Z</time>
      </trkpt>
      <trkpt lat="44.3114" lon="0.46467">
        <ele>89.9</ele>
        <time>2022-09-08T07:14:36.028Z</time>
      </trkpt>
      <trkpt lat="44.31133" lon="0.46467">
        <ele>90.3</ele>
        <time>2022-09-08T07:14:42.028Z</time>
      </trkpt>
      <trkpt lat="44.31133" lon="0.46464">
        <ele>90.3</ele>
        <time>2022-09-08T07:14:44.028Z</time>
      </trkpt>
      <trkpt lat="44.31141" lon="0.46455">
        <ele>89.9</ele>
        <time>2022-09-08T07:14:52.028Z</time>
      </trkpt>
      <trkpt lat="44.3115" lon="0.46445">
        <ele>89.2</ele>
        <time>2022-09-08T07:15:00.028Z</time>
      </trkpt>
      <trkpt lat="44.31157" lon="0.4644">
        <ele>88.9</ele>
        <time>2022-09-08T07:15:08.028Z</time>
      </trkpt>
      <trkpt lat="44.31163" lon="0.46435">
        <ele>88.6</ele>
        <time>2022-09-08T07:15:16.028Z</time>
      </trkpt>
      <trkpt lat="44.31167" lon="0.46433">
        <ele>88.4</ele>
        <time>2022-09-08T07:15:20.028Z</time>
      </trkpt>
      <trkpt lat="44.31196" lon="0.46408">
        <ele>85.9</ele>
        <time>2022-09-08T07:15:52.028Z</time>
      </trkpt>
      <trkpt lat="44.3122" lon="0.4639">
        <ele>84.2</ele>
        <time>2022-09-08T07:16:16.028Z</time>
      </trkpt>
      <trkpt lat="44.3123" lon="0.46385">
        <ele>83.1</ele>
        <time>2022-09-08T07:16:24.028Z</time>
      </trkpt>
      <trkpt lat="44.3128" lon="0.46343">
        <ele>78.9</ele>
        <time>2022-09-08T07:17:12.028Z</time>
      </trkpt>
      <trkpt lat="44.31295" lon="0.46329">
        <ele>78.4</ele>
        <time>2022-09-08T07:17:28.028Z</time>
      </trkpt>
      <trkpt lat="44.31313" lon="0.46318">
        <ele>77.7</ele>
        <time>2022-09-08T07:17:44.028Z</time>
      </trkpt>
      <trkpt lat="44.31335" lon="0.46302">
        <ele>77.1</ele>
        <time>2022-09-08T07:18:08.028Z</time>
      </trkpt>
      <trkpt lat="44.31347" lon="0.4629">
        <ele>77.3</ele>
        <time>2022-09-08T07:18:20.028Z</time>
      </trkpt>
      <trkpt lat="44.31349" lon="0.46285">
        <ele>77.3</ele>
        <time>2022-09-08T07:18:24.028Z</time>
      </trkpt>
      <trkpt lat="44.3135" lon="0.46273">
        <ele>77.4</ele>
        <time>2022-09-08T07:18:32.028Z</time>
      </trkpt>
      <trkpt lat="44.31348" lon="0.4625">
        <ele>77.5</ele>
        <time>2022-09-08T07:18:48.028Z</time>
      </trkpt>
      <trkpt lat="44.31349" lon="0.46242">
        <ele>77.4</ele>
        <time>2022-09-08T07:18:52.028Z</time>
      </trkpt>
      <trkpt lat="44.31348" lon="0.46188">
        <ele>77.1</ele>
        <time>2022-09-08T07:19:24.028Z</time>
      </trkpt>
      <trkpt lat="44.31351" lon="0.46133">
        <ele>77.4</ele>
        <time>2022-09-08T07:19:56.028Z</time>
      </trkpt>
      <trkpt lat="44.31349" lon="0.46078">
        <ele>77.4</ele>
        <time>2022-09-08T07:20:28.028Z</time>
      </trkpt>
      <trkpt lat="44.31355" lon="0.46052">
        <ele>77.2</ele>
        <time>2022-09-08T07:20:44.028Z</time>
      </trkpt>
      <trkpt lat="44.31365" lon="0.46022">
        <ele>76.9</ele>
        <time>2022-09-08T07:21:04.028Z</time>
      </trkpt>
      <trkpt lat="44.31363" lon="0.46007">
        <ele>76.9</ele>
        <time>2022-09-08T07:21:20.028Z</time>
      </trkpt>
      <trkpt lat="44.31362" lon="0.46005">
        <ele>77</ele>
        <time>2022-09-08T07:21:28.028Z</time>
      </trkpt>
      <trkpt lat="44.3137" lon="0.45996">
        <ele>76.7</ele>
        <time>2022-09-08T07:21:44.028Z</time>
      </trkpt>
      <trkpt lat="44.31376" lon="0.45976">
        <ele>76.4</ele>
        <time>2022-09-08T07:22:14.040Z</time>
      </trkpt>
      <trkpt lat="44.31383" lon="0.45946">
        <ele>76.2</ele>
        <time>2022-09-08T07:22:26.040Z</time>
      </trkpt>
      <trkpt lat="44.31382" lon="0.4594">
        <ele>76.2</ele>
        <time>2022-09-08T07:22:30.040Z</time>
      </trkpt>
      <trkpt lat="44.31376" lon="0.45935">
        <ele>76.5</ele>
        <time>2022-09-08T07:22:36.040Z</time>
      </trkpt>
      <trkpt lat="44.31371" lon="0.45937">
        <ele>76.7</ele>
        <time>2022-09-08T07:22:44.040Z</time>
      </trkpt>
      <trkpt lat="44.31366" lon="0.45934">
        <ele>76.8</ele>
        <time>2022-09-08T07:23:04.048Z</time>
      </trkpt>
      <trkpt lat="44.31363" lon="0.45929">
        <ele>76.9</ele>
        <time>2022-09-08T07:23:08.048Z</time>
      </trkpt>
      <trkpt lat="44.31319" lon="0.45915">
        <ele>79.5</ele>
        <time>2022-09-08T07:23:40.048Z</time>
      </trkpt>
      <trkpt lat="44.31299" lon="0.4591">
        <ele>80.5</ele>
        <time>2022-09-08T07:23:56.048Z</time>
      </trkpt>
      <trkpt lat="44.31288" lon="0.45905">
        <ele>81.3</ele>
        <time>2022-09-08T07:24:04.048Z</time>
      </trkpt>
      <trkpt lat="44.31285" lon="0.459">
        <ele>81.5</ele>
        <time>2022-09-08T07:24:08.048Z</time>
      </trkpt>
      <trkpt lat="44.31282" lon="0.45886">
        <ele>81.8</ele>
        <time>2022-09-08T07:24:16.048Z</time>
      </trkpt>
      <trkpt lat="44.31286" lon="0.45815">
        <ele>83.1</ele>
        <time>2022-09-08T07:24:56.048Z</time>
      </trkpt>
      <trkpt lat="44.31284" lon="0.45804">
        <ele>83.6</ele>
        <time>2022-09-08T07:25:04.048Z</time>
      </trkpt>
      <trkpt lat="44.31285" lon="0.45797">
        <ele>83.5</ele>
        <time>2022-09-08T07:25:12.048Z</time>
      </trkpt>
      <trkpt lat="44.31252" lon="0.45791">
        <ele>85.4</ele>
        <time>2022-09-08T07:25:44.048Z</time>
      </trkpt>
      <trkpt lat="44.31234" lon="0.45785">
        <ele>86.9</ele>
        <time>2022-09-08T07:26:00.048Z</time>
      </trkpt>
      <trkpt lat="44.31158" lon="0.4575">
        <ele>93</ele>
        <time>2022-09-08T07:27:04.048Z</time>
      </trkpt>
      <trkpt lat="44.31122" lon="0.45732">
        <ele>96.6</ele>
        <time>2022-09-08T07:27:36.048Z</time>
      </trkpt>
      <trkpt lat="44.31088" lon="0.45718">
        <ele>100.7</ele>
        <time>2022-09-08T07:28:08.048Z</time>
      </trkpt>
      <trkpt lat="44.3104" lon="0.45707">
        <ele>107.7</ele>
        <time>2022-09-08T07:28:56.048Z</time>
      </trkpt>
      <trkpt lat="44.31012" lon="0.45705">
        <ele>112.9</ele>
        <time>2022-09-08T07:29:28.048Z</time>
      </trkpt>
      <trkpt lat="44.31005" lon="0.45707">
        <ele>114</ele>
        <time>2022-09-08T07:30:19.044Z</time>
      </trkpt>
      <trkpt lat="44.30977" lon="0.45712">
        <ele>123.1</ele>
        <time>2022-09-08T07:30:47.044Z</time>
      </trkpt>
      <trkpt lat="44.30968" lon="0.45707">
        <ele>126.6</ele>
        <time>2022-09-08T07:30:55.044Z</time>
      </trkpt>
      <trkpt lat="44.30951" lon="0.45678">
        <ele>133.6</ele>
        <time>2022-09-08T07:31:19.044Z</time>
      </trkpt>
      <trkpt lat="44.30947" lon="0.45667">
        <ele>134.9</ele>
        <time>2022-09-08T07:31:27.044Z</time>
      </trkpt>
      <trkpt lat="44.30948" lon="0.45656">
        <ele>134.7</ele>
        <time>2022-09-08T07:31:35.044Z</time>
      </trkpt>
      <trkpt lat="44.30937" lon="0.45631">
        <ele>137.1</ele>
        <time>2022-09-08T07:31:51.044Z</time>
      </trkpt>
      <trkpt lat="44.30932" lon="0.45598">
        <ele>138.2</ele>
        <time>2022-09-08T07:32:15.044Z</time>
      </trkpt>
      <trkpt lat="44.30931" lon="0.45574">
        <ele>138.5</ele>
        <time>2022-09-08T07:32:31.044Z</time>
      </trkpt>
      <trkpt lat="44.30921" lon="0.4554">
        <ele>141</ele>
        <time>2022-09-08T07:32:55.044Z</time>
      </trkpt>
      <trkpt lat="44.30916" lon="0.45532">
        <ele>142.1</ele>
        <time>2022-09-08T07:33:03.044Z</time>
      </trkpt>
      <trkpt lat="44.30922" lon="0.45462">
        <ele>142.2</ele>
        <time>2022-09-08T07:37:46.059Z</time>
      </trkpt>
      <trkpt lat="44.30952" lon="0.45377">
        <ele>138.7</ele>
        <time>2022-09-08T07:38:52.063Z</time>
      </trkpt>
      <trkpt lat="44.30974" lon="0.45314">
        <ele>137.2</ele>
        <time>2022-09-08T07:40:30.074Z</time>
      </trkpt>
      <trkpt lat="44.31005" lon="0.45254">
        <ele>131.2</ele>
        <time>2022-09-08T07:41:50.074Z</time>
      </trkpt>
      <trkpt lat="44.31045" lon="0.45218">
        <ele>122.8</ele>
      </trkpt>
      <trkpt lat="44.31074" lon="0.45203">
        <ele>118.3</ele>
      </trkpt>
      <trkpt lat="44.311" lon="0.45214">
        <ele>113.1</ele>
      </trkpt>
      <trkpt lat="44.31123" lon="0.45224">
        <ele>109.2</ele>
      </trkpt>
      <trkpt lat="44.31183" lon="0.45196">
        <ele>102.3</ele>
      </trkpt>
      <trkpt lat="44.31227" lon="0.45175">
        <ele>97.9</ele>
      </trkpt>
      <trkpt lat="44.31258" lon="0.45156">
        <ele>94.6</ele>
      </trkpt>
      <trkpt lat="44.31391" lon="0.45203">
        <ele>85.1</ele>
        <time>2022-09-08T07:45:50.074Z</time>
      </trkpt>
      <trkpt lat="44.31438" lon="0.45096">
        <ele>81.2</ele>
        <time>2022-09-08T07:45:58.074Z</time>
      </trkpt>
      <trkpt lat="44.3149" lon="0.44997">
        <ele>85.9</ele>
        <time>2022-09-08T07:48:06.074Z</time>
      </trkpt>
      <trkpt lat="44.31497" lon="0.44924">
        <ele>88.8</ele>
        <time>2022-09-08T07:50:14.074Z</time>
      </trkpt>
      <trkpt lat="44.31525" lon="0.44804">
        <ele>84.3</ele>
        <time>2022-09-08T07:51:18.074Z</time>
      </trkpt>
      <trkpt lat="44.31521" lon="0.44718">
        <ele>85.7</ele>
      </trkpt>
      <trkpt lat="44.31531" lon="0.44656">
        <ele>92.2</ele>
      </trkpt>
      <trkpt lat="44.31545" lon="0.44576">
        <ele>100.6</ele>
      </trkpt>
      <trkpt lat="44.31565" lon="0.44508">
        <ele>104.7</ele>
      </trkpt>
      <trkpt lat="44.31576" lon="0.44459">
        <ele>105.6</ele>
        <time>2022-09-08T08:00:32.096Z</time>
      </trkpt>
      <trkpt lat="44.31597" lon="0.44468">
        <ele>104.6</ele>
        <time>2022-09-08T08:00:48.096Z</time>
      </trkpt>
      <trkpt lat="44.31607" lon="0.44469">
        <ele>104.2</ele>
        <time>2022-09-08T08:00:56.096Z</time>
      </trkpt>
      <trkpt lat="44.31612" lon="0.44466">
        <ele>104</ele>
        <time>2022-09-08T08:01:00.096Z</time>
      </trkpt>
      <trkpt lat="44.31612" lon="0.4446">
        <ele>103.9</ele>
        <time>2022-09-08T08:01:08.096Z</time>
      </trkpt>
      <trkpt lat="44.31615" lon="0.44456">
        <ele>103.8</ele>
        <time>2022-09-08T08:01:32.110Z</time>
      </trkpt>
      <trkpt lat="44.31621" lon="0.44424">
        <ele>103.7</ele>
        <time>2022-09-08T08:01:53.128Z</time>
      </trkpt>
      <trkpt lat="44.31615" lon="0.44361">
        <ele>104.7</ele>
        <time>2022-09-08T08:02:25.128Z</time>
      </trkpt>
      <trkpt lat="44.31621" lon="0.44301">
        <ele>103.5</ele>
        <time>2022-09-08T08:02:57.128Z</time>
      </trkpt>
      <trkpt lat="44.31631" lon="0.44225">
        <ele>101.3</ele>
        <time>2022-09-08T08:03:41.128Z</time>
      </trkpt>
      <trkpt lat="44.31634" lon="0.44219">
        <ele>101.1</ele>
        <time>2022-09-08T08:03:45.128Z</time>
      </trkpt>
      <trkpt lat="44.31643" lon="0.44217">
        <ele>100.6</ele>
        <time>2022-09-08T08:03:53.128Z</time>
      </trkpt>
      <trkpt lat="44.31662" lon="0.44219">
        <ele>100</ele>
        <time>2022-09-08T08:04:09.128Z</time>
      </trkpt>
      <trkpt lat="44.31664" lon="0.44222">
        <ele>100.1</ele>
        <time>2022-09-08T08:04:17.128Z</time>
      </trkpt>
      <trkpt lat="44.31674" lon="0.44219">
        <ele>99.4</ele>
        <time>2022-09-08T08:04:33.128Z</time>
      </trkpt>
      <trkpt lat="44.31699" lon="0.44223">
        <ele>98.1</ele>
        <time>2022-09-08T08:05:05.128Z</time>
      </trkpt>
      <trkpt lat="44.31705" lon="0.4422">
        <ele>98</ele>
        <time>2022-09-08T08:07:00.138Z</time>
      </trkpt>
      <trkpt lat="44.3175" lon="0.44094">
        <ele>94</ele>
        <time>2022-09-08T08:08:28.138Z</time>
      </trkpt>
      <trkpt lat="44.31788" lon="0.44003">
        <ele>90.7</ele>
        <time>2022-09-08T08:09:32.138Z</time>
      </trkpt>
      <trkpt lat="44.31813" lon="0.4395">
        <ele>89.5</ele>
        <time>2022-09-08T08:10:27.141Z</time>
      </trkpt>
      <trkpt lat="44.31822" lon="0.4394">
        <ele>88.8</ele>
        <time>2022-09-08T08:10:43.141Z</time>
      </trkpt>
      <trkpt lat="44.31824" lon="0.43933">
        <ele>88.5</ele>
        <time>2022-09-08T08:10:51.141Z</time>
      </trkpt>
      <trkpt lat="44.31831" lon="0.43924">
        <ele>88.1</ele>
        <time>2022-09-08T08:10:59.141Z</time>
      </trkpt>
      <trkpt lat="44.31837" lon="0.43918">
        <ele>87.9</ele>
        <time>2022-09-08T08:11:14.147Z</time>
      </trkpt>
      <trkpt lat="44.31849" lon="0.439">
        <ele>87.1</ele>
        <time>2022-09-08T08:11:30.147Z</time>
      </trkpt>
      <trkpt lat="44.31863" lon="0.43884">
        <ele>86</ele>
        <time>2022-09-08T08:11:44.147Z</time>
      </trkpt>
      <trkpt lat="44.31871" lon="0.43871">
        <ele>85.5</ele>
        <time>2022-09-08T08:13:04.143Z</time>
      </trkpt>
      <trkpt lat="44.31877" lon="0.43861">
        <ele>84.8</ele>
        <time>2022-09-08T08:13:12.143Z</time>
      </trkpt>
      <trkpt lat="44.31892" lon="0.43844">
        <ele>83.9</ele>
        <time>2022-09-08T08:13:28.143Z</time>
      </trkpt>
      <trkpt lat="44.31922" lon="0.43801">
        <ele>81.9</ele>
        <time>2022-09-08T08:14:00.143Z</time>
      </trkpt>
      <trkpt lat="44.31972" lon="0.43735">
        <ele>78</ele>
        <time>2022-09-08T08:14:56.143Z</time>
      </trkpt>
      <trkpt lat="44.3199" lon="0.43713">
        <ele>77</ele>
        <time>2022-09-08T08:15:20.143Z</time>
      </trkpt>
      <trkpt lat="44.32002" lon="0.43692">
        <ele>75.9</ele>
        <time>2022-09-08T08:17:16.670Z</time>
      </trkpt>
      <trkpt lat="44.32027" lon="0.43659">
        <ele>73.7</ele>
        <time>2022-09-08T08:17:48.670Z</time>
      </trkpt>
      <trkpt lat="44.32043" lon="0.43643">
        <ele>72.6</ele>
        <time>2022-09-08T08:18:04.670Z</time>
      </trkpt>
      <trkpt lat="44.32101" lon="0.43562">
        <ele>69.2</ele>
        <time>2022-09-08T08:19:08.670Z</time>
      </trkpt>
      <trkpt lat="44.3213" lon="0.43523">
        <ele>67.2</ele>
        <time>2022-09-08T08:19:40.670Z</time>
      </trkpt>
      <trkpt lat="44.32159" lon="0.43489">
        <ele>65.7</ele>
        <time>2022-09-08T08:20:12.670Z</time>
      </trkpt>
      <trkpt lat="44.32189" lon="0.43459">
        <ele>65</ele>
        <time>2022-09-08T08:20:44.670Z</time>
      </trkpt>
      <trkpt lat="44.32309" lon="0.4335">
        <ele>62</ele>
        <time>2022-09-08T08:22:52.670Z</time>
      </trkpt>
      <trkpt lat="44.32338" lon="0.4332">
        <ele>61.5</ele>
        <time>2022-09-08T08:23:24.670Z</time>
      </trkpt>
      <trkpt lat="44.32394" lon="0.4325">
        <ele>61</ele>
        <time>2022-09-08T08:24:28.670Z</time>
      </trkpt>
      <trkpt lat="44.32398" lon="0.43248">
        <ele>61</ele>
        <time>2022-09-08T08:24:32.670Z</time>
      </trkpt>
      <trkpt lat="44.32405" lon="0.4325">
        <ele>61</ele>
        <time>2022-09-08T08:24:40.670Z</time>
      </trkpt>
      <trkpt lat="44.32428" lon="0.43283">
        <ele>60.7</ele>
        <time>2022-09-08T08:25:12.670Z</time>
      </trkpt>
      <trkpt lat="44.32451" lon="0.43323">
        <ele>60.9</ele>
        <time>2022-09-08T08:25:44.670Z</time>
      </trkpt>
      <trkpt lat="44.32481" lon="0.4339">
        <ele>61</ele>
        <time>2022-09-08T08:26:32.670Z</time>
      </trkpt>
      <trkpt lat="44.32493" lon="0.43411">
        <ele>61</ele>
        <time>2022-09-08T08:26:48.670Z</time>
      </trkpt>
      <trkpt lat="44.32496" lon="0.43422">
        <ele>61</ele>
        <time>2022-09-08T08:26:56.670Z</time>
      </trkpt>
      <trkpt lat="44.32533" lon="0.4348">
        <ele>61</ele>
        <time>2022-09-08T08:27:44.670Z</time>
      </trkpt>
      <trkpt lat="44.32558" lon="0.43516">
        <ele>61</ele>
        <time>2022-09-08T08:28:16.670Z</time>
      </trkpt>
      <trkpt lat="44.32598" lon="0.43567">
        <ele>61</ele>
        <time>2022-09-08T08:29:04.670Z</time>
      </trkpt>
      <trkpt lat="44.32611" lon="0.43586">
        <ele>61</ele>
        <time>2022-09-08T08:29:20.670Z</time>
      </trkpt>
      <trkpt lat="44.32633" lon="0.43626">
        <ele>61.5</ele>
        <time>2022-09-08T08:29:52.670Z</time>
      </trkpt>
      <trkpt lat="44.32645" lon="0.43643">
        <ele>61.8</ele>
        <time>2022-09-08T08:30:08.670Z</time>
      </trkpt>
      <trkpt lat="44.32652" lon="0.43651">
        <ele>61.7</ele>
        <time>2022-09-08T08:30:29.694Z</time>
      </trkpt>
      <trkpt lat="44.32735" lon="0.43758">
        <ele>62.5</ele>
        <time>2022-09-08T08:32:37.694Z</time>
      </trkpt>
      <trkpt lat="44.32745" lon="0.43767">
        <ele>62.8</ele>
        <time>2022-09-08T08:33:39.581Z</time>
      </trkpt>
      <trkpt lat="44.32769" lon="0.43797">
        <ele>63</ele>
        <time>2022-09-08T08:34:11.581Z</time>
      </trkpt>
      <trkpt lat="44.32773" lon="0.4381">
        <ele>63</ele>
        <time>2022-09-08T08:34:19.581Z</time>
      </trkpt>
      <trkpt lat="44.32773" lon="0.43823">
        <ele>63</ele>
        <time>2022-09-08T08:34:27.581Z</time>
      </trkpt>
      <trkpt lat="44.32769" lon="0.43848">
        <ele>63</ele>
        <time>2022-09-08T08:34:43.581Z</time>
      </trkpt>
      <trkpt lat="44.32767" lon="0.43859">
        <ele>63</ele>
        <time>2022-09-08T08:34:59.581Z</time>
      </trkpt>
      <trkpt lat="44.32762" lon="0.4391">
        <ele>63.9</ele>
        <time>2022-09-08T08:35:31.581Z</time>
      </trkpt>
      <trkpt lat="44.32762" lon="0.43938">
        <ele>64</ele>
        <time>2022-09-08T08:35:47.581Z</time>
      </trkpt>
      <trkpt lat="44.32763" lon="0.43964">
        <ele>64</ele>
        <time>2022-09-08T08:36:03.581Z</time>
      </trkpt>
      <trkpt lat="44.32772" lon="0.44011">
        <ele>64.5</ele>
        <time>2022-09-08T08:36:31.581Z</time>
      </trkpt>
      <trkpt lat="44.3277" lon="0.44063">
        <ele>65</ele>
        <time>2022-09-08T08:37:03.581Z</time>
      </trkpt>
      <trkpt lat="44.32767" lon="0.44112">
        <ele>65</ele>
        <time>2022-09-08T08:37:39.581Z</time>
      </trkpt>
      <trkpt lat="44.32766" lon="0.44112">
        <ele>65</ele>
        <time>2022-09-08T08:38:18.601Z</time>
      </trkpt>
      <trkpt lat="44.32767" lon="0.44154">
        <ele>65.3</ele>
        <time>2022-09-08T08:39:16.641Z</time>
      </trkpt>
      <trkpt lat="44.32766" lon="0.44196">
        <ele>66</ele>
        <time>2022-09-08T08:39:40.641Z</time>
      </trkpt>
      <trkpt lat="44.32763" lon="0.44209">
        <ele>66</ele>
        <time>2022-09-08T08:39:48.641Z</time>
      </trkpt>
      <trkpt lat="44.32761" lon="0.44287">
        <ele>66.6</ele>
        <time>2022-09-08T08:40:36.641Z</time>
      </trkpt>
      <trkpt lat="44.32754" lon="0.44443">
        <ele>68.8</ele>
        <time>2022-09-08T08:42:12.641Z</time>
      </trkpt>
      <trkpt lat="44.32749" lon="0.44476">
        <ele>68.9</ele>
        <time>2022-09-08T08:42:48.641Z</time>
      </trkpt>
      <trkpt lat="44.32744" lon="0.44495">
        <ele>68.2</ele>
        <time>2022-09-08T08:44:44.673Z</time>
      </trkpt>
      <trkpt lat="44.32738" lon="0.44517">
        <ele>67.1</ele>
        <time>2022-09-08T08:45:48.677Z</time>
      </trkpt>
      <trkpt lat="44.32727" lon="0.44551">
        <ele>63.7</ele>
        <time>2022-09-08T08:46:20.677Z</time>
      </trkpt>
      <trkpt lat="44.32727" lon="0.44558">
        <ele>63</ele>
        <time>2022-09-08T08:46:24.677Z</time>
      </trkpt>
      <trkpt lat="44.32715" lon="0.44581">
        <ele>60.9</ele>
        <time>2022-09-08T08:46:40.677Z</time>
      </trkpt>
      <trkpt lat="44.3271" lon="0.44594">
        <ele>60</ele>
        <time>2022-09-08T08:46:48.677Z</time>
      </trkpt>
      <trkpt lat="44.32705" lon="0.44601">
        <ele>59.5</ele>
        <time>2022-09-08T08:46:54.677Z</time>
      </trkpt>
      <trkpt lat="44.32696" lon="0.44599">
        <ele>59.5</ele>
        <time>2022-09-08T08:47:02.677Z</time>
      </trkpt>
      <trkpt lat="44.32681" lon="0.44599">
        <ele>59.4</ele>
        <time>2022-09-08T08:47:22.677Z</time>
      </trkpt>
      <trkpt lat="44.32678" lon="0.44606">
        <ele>59.2</ele>
        <time>2022-09-08T08:47:30.677Z</time>
      </trkpt>
      <trkpt lat="44.32668" lon="0.44648">
        <ele>59.3</ele>
        <time>2022-09-08T08:48:02.677Z</time>
      </trkpt>
      <trkpt lat="44.3263" lon="0.4475">
        <ele>65.6</ele>
        <time>2022-09-08T08:49:22.677Z</time>
      </trkpt>
      <trkpt lat="44.32625" lon="0.44758">
        <ele>66.7</ele>
        <time>2022-09-08T08:49:30.677Z</time>
      </trkpt>
      <trkpt lat="44.32613" lon="0.44776">
        <ele>68.8</ele>
        <time>2022-09-08T08:49:46.677Z</time>
      </trkpt>
      <trkpt lat="44.32579" lon="0.44842">
        <ele>73.9</ele>
        <time>2022-09-08T08:50:34.677Z</time>
      </trkpt>
      <trkpt lat="44.3257" lon="0.44863">
        <ele>75.6</ele>
        <time>2022-09-08T08:50:50.677Z</time>
      </trkpt>
      <trkpt lat="44.32545" lon="0.44909">
        <ele>79.4</ele>
        <time>2022-09-08T08:51:42.677Z</time>
      </trkpt>
      <trkpt lat="44.32581" lon="0.44966">
        <ele>83.7</ele>
        <time>2022-09-08T08:52:38.677Z</time>
      </trkpt>
      <trkpt lat="44.32589" lon="0.44974">
        <ele>84.2</ele>
        <time>2022-09-08T08:52:54.677Z</time>
      </trkpt>
      <trkpt lat="44.32605" lon="0.44998">
        <ele>85.2</ele>
        <time>2022-09-08T08:53:18.677Z</time>
      </trkpt>
      <trkpt lat="44.32608" lon="0.45013">
        <ele>85.8</ele>
        <time>2022-09-08T08:53:40.685Z</time>
      </trkpt>
      <trkpt lat="44.32607" lon="0.45017">
        <ele>85.8</ele>
        <time>2022-09-08T08:54:14.689Z</time>
      </trkpt>
      <trkpt lat="44.32603" lon="0.45018">
        <ele>85.7</ele>
        <time>2022-09-08T08:54:18.689Z</time>
      </trkpt>
      <trkpt lat="44.32582" lon="0.45042">
        <ele>87</ele>
        <time>2022-09-08T08:54:50.689Z</time>
      </trkpt>
      <trkpt lat="44.32548" lon="0.45097">
        <ele>88.3</ele>
        <time>2022-09-08T08:55:38.689Z</time>
      </trkpt>
      <trkpt lat="44.3254" lon="0.45105">
        <ele>88.3</ele>
        <time>2022-09-08T08:55:46.689Z</time>
      </trkpt>
      <trkpt lat="44.32532" lon="0.45111">
        <ele>88.1</ele>
        <time>2022-09-08T08:55:54.689Z</time>
      </trkpt>
      <trkpt lat="44.32513" lon="0.45118">
        <ele>88.9</ele>
        <time>2022-09-08T08:56:10.689Z</time>
      </trkpt>
      <trkpt lat="44.32495" lon="0.4512">
        <ele>89.5</ele>
        <time>2022-09-08T08:56:26.689Z</time>
      </trkpt>
      <trkpt lat="44.32486" lon="0.45119">
        <ele>89.8</ele>
        <time>2022-09-08T08:56:34.689Z</time>
      </trkpt>
      <trkpt lat="44.32466" lon="0.45113">
        <ele>90.5</ele>
        <time>2022-09-08T08:56:50.689Z</time>
      </trkpt>
      <trkpt lat="44.32457" lon="0.45109">
        <ele>91</ele>
        <time>2022-09-08T08:56:58.689Z</time>
      </trkpt>
      <trkpt lat="44.32448" lon="0.45124">
        <ele>91.8</ele>
        <time>2022-09-08T08:58:10.689Z</time>
      </trkpt>
      <trkpt lat="44.32437" lon="0.4517">
        <ele>93.6</ele>
        <time>2022-09-08T08:59:10.693Z</time>
      </trkpt>
      <trkpt lat="44.32438" lon="0.45196">
        <ele>93.7</ele>
        <time>2022-09-08T08:59:26.693Z</time>
      </trkpt>
      <trkpt lat="44.32437" lon="0.45224">
        <ele>94.5</ele>
        <time>2022-09-08T08:59:42.693Z</time>
      </trkpt>
      <trkpt lat="44.32434" lon="0.4525">
        <ele>94.8</ele>
        <time>2022-09-08T08:59:58.693Z</time>
      </trkpt>
      <trkpt lat="44.32433" lon="0.4527">
        <ele>95.6</ele>
        <time>2022-09-08T09:00:14.693Z</time>
      </trkpt>
      <trkpt lat="44.32425" lon="0.45292">
        <ele>96.4</ele>
        <time>2022-09-08T09:00:30.693Z</time>
      </trkpt>
      <trkpt lat="44.32408" lon="0.45328">
        <ele>96.8</ele>
        <time>2022-09-08T09:01:02.693Z</time>
      </trkpt>
      <trkpt lat="44.32405" lon="0.45351">
        <ele>97.5</ele>
        <time>2022-09-08T09:01:27.693Z</time>
      </trkpt>
      <trkpt lat="44.32397" lon="0.45368">
        <ele>98.4</ele>
        <time>2022-09-08T09:01:43.693Z</time>
      </trkpt>
      <trkpt lat="44.32394" lon="0.45369">
        <ele>98.7</ele>
        <time>2022-09-08T09:01:47.693Z</time>
      </trkpt>
      <trkpt lat="44.32385" lon="0.4537">
        <ele>99.1</ele>
        <time>2022-09-08T09:01:55.693Z</time>
      </trkpt>
      <trkpt lat="44.32381" lon="0.45373">
        <ele>99.3</ele>
        <time>2022-09-08T09:02:03.693Z</time>
      </trkpt>
      <trkpt lat="44.32373" lon="0.45382">
        <ele>99.6</ele>
        <time>2022-09-08T09:02:11.693Z</time>
      </trkpt>
      <trkpt lat="44.32339" lon="0.45393">
        <ele>101.7</ele>
        <time>2022-09-08T09:02:59.693Z</time>
      </trkpt>
      <trkpt lat="44.32322" lon="0.45404">
        <ele>102.7</ele>
      </trkpt>
      <trkpt lat="44.32301" lon="0.45386">
        <ele>102.6</ele>
      </trkpt>
      <trkpt lat="44.32316" lon="0.45417">
        <ele>103</ele>
        <time>2022-09-08T09:03:07.693Z</time>
      </trkpt>
      <trkpt lat="44.32313" lon="0.45427">
        <ele>103</ele>
        <time>2022-09-08T09:03:15.693Z</time>
      </trkpt>
      <trkpt lat="44.3231" lon="0.45448">
        <ele>103</ele>
        <time>2022-09-08T09:03:31.693Z</time>
      </trkpt>
      <trkpt lat="44.32298" lon="0.45495">
        <ele>103</ele>
        <time>2022-09-08T09:04:03.693Z</time>
      </trkpt>
      <trkpt lat="44.32291" lon="0.4552">
        <ele>103.4</ele>
        <time>2022-09-08T09:04:19.693Z</time>
      </trkpt>
      <trkpt lat="44.3228" lon="0.45543">
        <ele>104.4</ele>
        <time>2022-09-08T09:04:35.693Z</time>
      </trkpt>
      <trkpt lat="44.32267" lon="0.45565">
        <ele>105.5</ele>
        <time>2022-09-08T09:04:51.693Z</time>
      </trkpt>
      <trkpt lat="44.32239" lon="0.45599">
        <ele>107.2</ele>
        <time>2022-09-08T09:05:23.693Z</time>
      </trkpt>
      <trkpt lat="44.32233" lon="0.45608">
        <ele>107.6</ele>
        <time>2022-09-08T09:05:31.693Z</time>
      </trkpt>
      <trkpt lat="44.32232" lon="0.45613">
        <ele>107.6</ele>
        <time>2022-09-08T09:05:35.693Z</time>
      </trkpt>
      <trkpt lat="44.32239" lon="0.45629">
        <ele>106.7</ele>
        <time>2022-09-08T09:06:40.709Z</time>
      </trkpt>
      <trkpt lat="44.32259" lon="0.4566">
        <ele>102.7</ele>
        <time>2022-09-08T09:08:19.640Z</time>
      </trkpt>
      <trkpt lat="44.32293" lon="0.45724">
        <ele>101</ele>
        <time>2022-09-08T09:09:07.640Z</time>
      </trkpt>
      <trkpt lat="44.32306" lon="0.45741">
        <ele>101.3</ele>
        <time>2022-09-08T09:09:23.640Z</time>
      </trkpt>
      <trkpt lat="44.32318" lon="0.45762">
        <ele>101.1</ele>
        <time>2022-09-08T09:09:39.640Z</time>
      </trkpt>
      <trkpt lat="44.32338" lon="0.45789">
        <ele>99.7</ele>
        <time>2022-09-08T09:10:03.640Z</time>
      </trkpt>
      <trkpt lat="44.32356" lon="0.45823">
        <ele>98.9</ele>
        <time>2022-09-08T09:10:29.640Z</time>
      </trkpt>
      <trkpt lat="44.32359" lon="0.45832">
        <ele>99</ele>
        <time>2022-09-08T09:10:51.664Z</time>
      </trkpt>
      <trkpt lat="44.32371" lon="0.45855">
        <ele>99.7</ele>
        <time>2022-09-08T09:11:25.684Z</time>
      </trkpt>
      <trkpt lat="44.32388" lon="0.459">
        <ele>102.8</ele>
        <time>2022-09-08T09:11:57.684Z</time>
      </trkpt>
      <trkpt lat="44.32424" lon="0.45984">
        <ele>111.3</ele>
        <time>2022-09-08T09:13:01.684Z</time>
      </trkpt>
      <trkpt lat="44.3245" lon="0.46047">
        <ele>116.8</ele>
        <time>2022-09-08T09:13:49.684Z</time>
      </trkpt>
      <trkpt lat="44.32451" lon="0.46053">
        <ele>117.3</ele>
        <time>2022-09-08T09:13:53.684Z</time>
      </trkpt>
      <trkpt lat="44.3245" lon="0.46061">
        <ele>117.8</ele>
        <time>2022-09-08T09:14:01.684Z</time>
      </trkpt>
      <trkpt lat="44.32365" lon="0.46134">
        <ele>127.4</ele>
        <time>2022-09-08T09:16:07.696Z</time>
      </trkpt>
      <trkpt lat="44.32375" lon="0.46147">
        <ele>127.3</ele>
        <time>2022-09-08T09:16:23.696Z</time>
      </trkpt>
      <trkpt lat="44.32381" lon="0.46158">
        <ele>127</ele>
        <time>2022-09-08T09:16:31.696Z</time>
      </trkpt>
      <trkpt lat="44.32382" lon="0.46164">
        <ele>127</ele>
        <time>2022-09-08T09:16:35.696Z</time>
      </trkpt>
      <trkpt lat="44.32377" lon="0.46168">
        <ele>127.8</ele>
        <time>2022-09-08T09:16:39.696Z</time>
      </trkpt>
      <trkpt lat="44.32361" lon="0.46169">
        <ele>130.2</ele>
        <time>2022-09-08T09:17:16.708Z</time>
      </trkpt>
      <trkpt lat="44.32354" lon="0.46177">
        <ele>131.5</ele>
        <time>2022-09-08T09:17:24.708Z</time>
      </trkpt>
      <trkpt lat="44.32351" lon="0.46178">
        <ele>131.9</ele>
        <time>2022-09-08T09:17:32.708Z</time>
      </trkpt>
      <trkpt lat="44.32344" lon="0.46169">
        <ele>132.1</ele>
        <time>2022-09-08T09:17:58.720Z</time>
      </trkpt>
      <trkpt lat="44.32335" lon="0.46168">
        <ele>132.9</ele>
        <time>2022-09-08T09:18:06.720Z</time>
      </trkpt>
      <trkpt lat="44.32331" lon="0.46164">
        <ele>133</ele>
        <time>2022-09-08T09:18:14.720Z</time>
      </trkpt>
      <trkpt lat="44.32331" lon="0.46163">
        <ele>132.9</ele>
        <time>2022-09-08T09:18:22.720Z</time>
      </trkpt>
      <trkpt lat="44.32321" lon="0.46172">
        <ele>134.3</ele>
        <time>2022-09-08T09:18:50.728Z</time>
      </trkpt>
      <trkpt lat="44.32317" lon="0.46166">
        <ele>134.1</ele>
        <time>2022-09-08T09:18:58.728Z</time>
      </trkpt>
      <trkpt lat="44.32313" lon="0.46165">
        <ele>134.3</ele>
        <time>2022-09-08T09:19:02.728Z</time>
      </trkpt>
      <trkpt lat="44.32305" lon="0.46167">
        <ele>135</ele>
        <time>2022-09-08T09:19:10.728Z</time>
      </trkpt>
      <trkpt lat="44.32299" lon="0.46178">
        <ele>135.9</ele>
        <time>2022-09-08T09:19:22.728Z</time>
      </trkpt>
      <trkpt lat="44.32296" lon="0.46179">
        <ele>135.8</ele>
        <time>2022-09-08T09:19:30.728Z</time>
      </trkpt>
      <trkpt lat="44.32293" lon="0.46182">
        <ele>136</ele>
        <time>2022-09-08T09:19:38.728Z</time>
      </trkpt>
      <trkpt lat="44.32291" lon="0.46191">
        <ele>136.6</ele>
        <time>2022-09-08T09:20:11.744Z</time>
      </trkpt>
      <trkpt lat="44.32288" lon="0.46194">
        <ele>136.7</ele>
        <time>2022-09-08T09:20:15.744Z</time>
      </trkpt>
      <trkpt lat="44.32285" lon="0.46203">
        <ele>137.5</ele>
        <time>2022-09-08T09:21:20.752Z</time>
      </trkpt>
      <trkpt lat="44.32281" lon="0.4621">
        <ele>138.3</ele>
        <time>2022-09-08T09:22:39.760Z</time>
      </trkpt>
      <trkpt lat="44.32281" lon="0.46214">
        <ele>138.8</ele>
        <time>2022-09-08T09:23:00.772Z</time>
      </trkpt>
      <trkpt lat="44.32275" lon="0.46227">
        <ele>140.4</ele>
        <time>2022-09-08T09:23:52.780Z</time>
      </trkpt>
      <trkpt lat="44.32272" lon="0.46228">
        <ele>140.5</ele>
        <time>2022-09-08T09:23:56.780Z</time>
      </trkpt>
      <trkpt lat="44.32263" lon="0.46248">
        <ele>142.8</ele>
        <time>2022-09-08T09:25:00.788Z</time>
      </trkpt>
      <trkpt lat="44.32263" lon="0.46246">
        <ele>142.5</ele>
        <time>2022-09-08T09:26:51.808Z</time>
      </trkpt>
      <trkpt lat="44.3226" lon="0.46255">
        <ele>143.2</ele>
        <time>2022-09-08T09:27:24.816Z</time>
      </trkpt>
      <trkpt lat="44.32251" lon="0.46268">
        <ele>143.6</ele>
        <time>2022-09-08T09:27:36.816Z</time>
      </trkpt>
      <trkpt lat="44.32246" lon="0.46269">
        <ele>143.8</ele>
        <time>2022-09-08T09:27:40.816Z</time>
      </trkpt>
      <trkpt lat="44.32238" lon="0.46267">
        <ele>143.9</ele>
        <time>2022-09-08T09:27:48.816Z</time>
      </trkpt>
      <trkpt lat="44.32228" lon="0.46264">
        <ele>143.9</ele>
        <time>2022-09-08T09:28:17.824Z</time>
      </trkpt>
      <trkpt lat="44.32218" lon="0.46261">
        <ele>143.7</ele>
        <time>2022-09-08T09:28:25.824Z</time>
      </trkpt>
      <trkpt lat="44.32209" lon="0.46257">
        <ele>143.4</ele>
        <time>2022-09-08T09:28:33.824Z</time>
      </trkpt>
      <trkpt lat="44.32181" lon="0.46238">
        <ele>142.9</ele>
        <time>2022-09-08T09:29:05.824Z</time>
      </trkpt>
      <trkpt lat="44.32168" lon="0.46227">
        <ele>142.3</ele>
        <time>2022-09-08T09:29:17.824Z</time>
      </trkpt>
      <trkpt lat="44.32164" lon="0.46226">
        <ele>142.5</ele>
        <time>2022-09-08T09:29:21.824Z</time>
      </trkpt>
      <trkpt lat="44.32159" lon="0.46226">
        <ele>142.8</ele>
        <time>2022-09-08T09:29:25.824Z</time>
      </trkpt>
      <trkpt lat="44.32143" lon="0.46235">
        <ele>145</ele>
        <time>2022-09-08T09:29:41.824Z</time>
      </trkpt>
      <trkpt lat="44.32135" lon="0.46243">
        <ele>146.2</ele>
        <time>2022-09-08T09:29:49.824Z</time>
      </trkpt>
      <trkpt lat="44.32124" lon="0.46252">
        <ele>146.5</ele>
        <time>2022-09-08T09:29:57.824Z</time>
      </trkpt>
      <trkpt lat="44.32113" lon="0.46254">
        <ele>146.4</ele>
        <time>2022-09-08T09:30:05.824Z</time>
      </trkpt>
      <trkpt lat="44.32095" lon="0.46246">
        <ele>146.4</ele>
        <time>2022-09-08T09:30:21.824Z</time>
      </trkpt>
      <trkpt lat="44.32086" lon="0.46244">
        <ele>146.7</ele>
        <time>2022-09-08T09:30:29.824Z</time>
      </trkpt>
      <trkpt lat="44.32081" lon="0.46245">
        <ele>147</ele>
        <time>2022-09-08T09:30:33.824Z</time>
      </trkpt>
      <trkpt lat="44.32078" lon="0.46249">
        <ele>147.4</ele>
        <time>2022-09-08T09:30:37.824Z</time>
      </trkpt>
      <trkpt lat="44.32062" lon="0.46262">
        <ele>148.7</ele>
        <time>2022-09-08T09:31:01.824Z</time>
      </trkpt>
      <trkpt lat="44.32058" lon="0.46261">
        <ele>148.9</ele>
        <time>2022-09-08T09:31:05.824Z</time>
      </trkpt>
      <trkpt lat="44.32053" lon="0.46262">
        <ele>149.1</ele>
        <time>2022-09-08T09:31:09.824Z</time>
      </trkpt>
      <trkpt lat="44.32035" lon="0.46276">
        <ele>150.4</ele>
        <time>2022-09-08T09:31:25.824Z</time>
      </trkpt>
      <trkpt lat="44.32019" lon="0.46296">
        <ele>150.9</ele>
        <time>2022-09-08T09:31:41.824Z</time>
      </trkpt>
      <trkpt lat="44.31999" lon="0.46324">
        <ele>151.6</ele>
        <time>2022-09-08T09:32:05.824Z</time>
      </trkpt>
      <trkpt lat="44.31988" lon="0.46349">
        <ele>151.2</ele>
        <time>2022-09-08T09:32:21.824Z</time>
      </trkpt>
      <trkpt lat="44.3198" lon="0.46359">
        <ele>150.8</ele>
        <time>2022-09-08T09:32:29.824Z</time>
      </trkpt>
      <trkpt lat="44.31971" lon="0.46365">
        <ele>150.2</ele>
        <time>2022-09-08T09:32:37.824Z</time>
      </trkpt>
      <trkpt lat="44.31963" lon="0.46377">
        <ele>149.8</ele>
        <time>2022-09-08T09:32:53.824Z</time>
      </trkpt>
      <trkpt lat="44.31952" lon="0.46399">
        <ele>148.9</ele>
        <time>2022-09-08T09:33:17.824Z</time>
      </trkpt>
      <trkpt lat="44.31945" lon="0.46407">
        <ele>148.4</ele>
        <time>2022-09-08T09:33:25.824Z</time>
      </trkpt>
      <trkpt lat="44.31937" lon="0.46409">
        <ele>147.3</ele>
        <time>2022-09-08T09:33:33.824Z</time>
      </trkpt>
      <trkpt lat="44.31926" lon="0.46421">
        <ele>146.7</ele>
        <time>2022-09-08T09:34:36.718Z</time>
      </trkpt>
      <trkpt lat="44.31914" lon="0.46427">
        <ele>145.4</ele>
        <time>2022-09-08T09:34:52.718Z</time>
      </trkpt>
      <trkpt lat="44.31911" lon="0.4643">
        <ele>145.2</ele>
        <time>2022-09-08T09:34:56.718Z</time>
      </trkpt>
      <trkpt lat="44.31871" lon="0.46448">
        <ele>144.1</ele>
        <time>2022-09-08T09:35:32.718Z</time>
      </trkpt>
      <trkpt lat="44.31851" lon="0.46449">
        <ele>143.4</ele>
        <time>2022-09-08T09:35:48.718Z</time>
      </trkpt>
      <trkpt lat="44.31814" lon="0.4644">
        <ele>142.3</ele>
        <time>2022-09-08T09:36:20.718Z</time>
      </trkpt>
      <trkpt lat="44.31794" lon="0.46439">
        <ele>141.9</ele>
        <time>2022-09-08T09:36:36.718Z</time>
      </trkpt>
      <trkpt lat="44.3179" lon="0.46438">
        <ele>141.6</ele>
        <time>2022-09-08T09:36:40.718Z</time>
      </trkpt>
      <trkpt lat="44.31774" lon="0.46444">
        <ele>141.5</ele>
        <time>2022-09-08T09:36:56.718Z</time>
      </trkpt>
      <trkpt lat="44.31756" lon="0.46459">
        <ele>141.9</ele>
        <time>2022-09-08T09:37:12.718Z</time>
      </trkpt>
      <trkpt lat="44.31751" lon="0.46467">
        <ele>143</ele>
        <time>2022-09-08T09:37:20.718Z</time>
      </trkpt>
      <trkpt lat="44.31746" lon="0.46477">
        <ele>143</ele>
        <time>2022-09-08T09:37:28.718Z</time>
      </trkpt>
      <trkpt lat="44.3174" lon="0.46505">
        <ele>143.7</ele>
        <time>2022-09-08T09:37:44.718Z</time>
      </trkpt>
      <trkpt lat="44.31731" lon="0.4653">
        <ele>144.4</ele>
        <time>2022-09-08T09:38:00.718Z</time>
      </trkpt>
      <trkpt lat="44.31719" lon="0.46547">
        <ele>144.2</ele>
        <time>2022-09-08T09:38:16.718Z</time>
      </trkpt>
      <trkpt lat="44.31687" lon="0.4658">
        <ele>141.9</ele>
        <time>2022-09-08T09:38:48.718Z</time>
      </trkpt>
      <trkpt lat="44.31678" lon="0.46591">
        <ele>141.4</ele>
        <time>2022-09-08T09:38:56.718Z</time>
      </trkpt>
      <trkpt lat="44.31665" lon="0.46615">
        <ele>142.6</ele>
        <time>2022-09-08T09:39:12.718Z</time>
      </trkpt>
      <trkpt lat="44.31654" lon="0.46638">
        <ele>141.6</ele>
        <time>2022-09-08T09:39:28.718Z</time>
      </trkpt>
      <trkpt lat="44.31646" lon="0.46663">
        <ele>141.8</ele>
        <time>2022-09-08T09:39:44.718Z</time>
      </trkpt>
      <trkpt lat="44.31641" lon="0.46688">
        <ele>142.8</ele>
        <time>2022-09-08T09:40:00.718Z</time>
      </trkpt>
      <trkpt lat="44.31638" lon="0.46694">
        <ele>142.7</ele>
        <time>2022-09-08T09:40:04.718Z</time>
      </trkpt>
      <trkpt lat="44.31635" lon="0.46695">
        <ele>141.8</ele>
        <time>2022-09-08T09:40:12.718Z</time>
      </trkpt>
      <trkpt lat="44.31622" lon="0.46722">
        <ele>140.4</ele>
        <time>2022-09-08T09:40:48.725Z</time>
      </trkpt>
      <trkpt lat="44.3161" lon="0.46777">
        <ele>141.5</ele>
        <time>2022-09-08T09:41:20.725Z</time>
      </trkpt>
      <trkpt lat="44.31603" lon="0.46795">
        <ele>140.8</ele>
        <time>2022-09-08T09:41:32.725Z</time>
      </trkpt>
      <trkpt lat="44.31594" lon="0.46804">
        <ele>139.6</ele>
        <time>2022-09-08T09:41:40.725Z</time>
      </trkpt>
      <trkpt lat="44.31586" lon="0.46816">
        <ele>139</ele>
        <time>2022-09-08T09:41:48.725Z</time>
      </trkpt>
      <trkpt lat="44.31575" lon="0.46843">
        <ele>138.8</ele>
        <time>2022-09-08T09:42:04.725Z</time>
      </trkpt>
      <trkpt lat="44.31569" lon="0.46864">
        <ele>138.1</ele>
        <time>2022-09-08T09:42:16.725Z</time>
      </trkpt>
      <trkpt lat="44.31569" lon="0.46878">
        <ele>138.4</ele>
        <time>2022-09-08T09:42:24.725Z</time>
      </trkpt>
      <trkpt lat="44.31571" lon="0.46893">
        <ele>139.3</ele>
        <time>2022-09-08T09:42:32.725Z</time>
      </trkpt>
      <trkpt lat="44.3156" lon="0.46925">
        <ele>138</ele>
        <time>2022-09-08T09:42:52.725Z</time>
      </trkpt>
      <trkpt lat="44.31525" lon="0.46964">
        <ele>133.1</ele>
        <time>2022-09-08T09:43:24.725Z</time>
      </trkpt>
      <trkpt lat="44.31507" lon="0.46994">
        <ele>131.1</ele>
        <time>2022-09-08T09:43:48.725Z</time>
      </trkpt>
      <trkpt lat="44.31501" lon="0.47024">
        <ele>131.1</ele>
        <time>2022-09-08T09:44:04.725Z</time>
      </trkpt>
      <trkpt lat="44.31504" lon="0.47052">
        <ele>131.9</ele>
        <time>2022-09-08T09:44:20.725Z</time>
      </trkpt>
      <trkpt lat="44.31508" lon="0.4707">
        <ele>133.3</ele>
        <time>2022-09-08T09:44:32.725Z</time>
      </trkpt>
      <trkpt lat="44.31508" lon="0.47078">
        <ele>133.4</ele>
        <time>2022-09-08T09:44:36.725Z</time>
      </trkpt>
      <trkpt lat="44.31513" lon="0.47102">
        <ele>134.9</ele>
        <time>2022-09-08T09:44:52.725Z</time>
      </trkpt>
      <trkpt lat="44.31518" lon="0.47116">
        <ele>136</ele>
        <time>2022-09-08T09:45:00.725Z</time>
      </trkpt>
      <trkpt lat="44.3152" lon="0.47127">
        <ele>136.3</ele>
        <time>2022-09-08T09:45:08.725Z</time>
      </trkpt>
      <trkpt lat="44.31516" lon="0.47196">
        <ele>134.8</ele>
        <time>2022-09-08T09:45:56.725Z</time>
      </trkpt>
      <trkpt lat="44.31513" lon="0.47202">
        <ele>134</ele>
        <time>2022-09-08T09:46:04.725Z</time>
      </trkpt>
      <trkpt lat="44.31514" lon="0.4721">
        <ele>133.7</ele>
        <time>2022-09-08T09:46:12.725Z</time>
      </trkpt>
      <trkpt lat="44.31511" lon="0.47218">
        <ele>132.8</ele>
        <time>2022-09-08T09:46:20.725Z</time>
      </trkpt>
      <trkpt lat="44.315" lon="0.47236">
        <ele>129.5</ele>
        <time>2022-09-08T09:46:36.725Z</time>
      </trkpt>
      <trkpt lat="44.31489" lon="0.47259">
        <ele>125.5</ele>
        <time>2022-09-08T09:46:52.725Z</time>
      </trkpt>
      <trkpt lat="44.31482" lon="0.47268">
        <ele>123.9</ele>
        <time>2022-09-08T09:47:00.725Z</time>
      </trkpt>
      <trkpt lat="44.31456" lon="0.47289">
        <ele>118.6</ele>
        <time>2022-09-08T09:47:28.725Z</time>
      </trkpt>
      <trkpt lat="44.31448" lon="0.47293">
        <ele>117.3</ele>
        <time>2022-09-08T09:47:36.725Z</time>
      </trkpt>
      <trkpt lat="44.3144" lon="0.47301">
        <ele>115.9</ele>
        <time>2022-09-08T09:47:44.725Z</time>
      </trkpt>
      <trkpt lat="44.3143" lon="0.47306">
        <ele>114.4</ele>
        <time>2022-09-08T09:47:52.725Z</time>
      </trkpt>
      <trkpt lat="44.31421" lon="0.47308">
        <ele>113.3</ele>
        <time>2022-09-08T09:48:00.725Z</time>
      </trkpt>
      <trkpt lat="44.31403" lon="0.47306">
        <ele>111.5</ele>
        <time>2022-09-08T09:48:16.725Z</time>
      </trkpt>
      <trkpt lat="44.31389" lon="0.47306">
        <ele>109.9</ele>
        <time>2022-09-08T09:48:28.725Z</time>
      </trkpt>
      <trkpt lat="44.31363" lon="0.47303">
        <ele>108.1</ele>
        <time>2022-09-08T09:48:52.725Z</time>
      </trkpt>
      <trkpt lat="44.31346" lon="0.47306">
        <ele>105.8</ele>
        <time>2022-09-08T09:49:08.725Z</time>
      </trkpt>
      <trkpt lat="44.31317" lon="0.47306">
        <ele>101.7</ele>
        <time>2022-09-08T09:49:32.725Z</time>
      </trkpt>
      <trkpt lat="44.31309" lon="0.47307">
        <ele>100.4</ele>
        <time>2022-09-08T09:49:40.725Z</time>
      </trkpt>
      <trkpt lat="44.31301" lon="0.47304">
        <ele>99.4</ele>
        <time>2022-09-08T09:49:52.725Z</time>
      </trkpt>
      <trkpt lat="44.31299" lon="0.473">
        <ele>99.2</ele>
        <time>2022-09-08T09:49:56.725Z</time>
      </trkpt>
      <trkpt lat="44.31297" lon="0.4728">
        <ele>99.4</ele>
        <time>2022-09-08T09:53:52.743Z</time>
      </trkpt>
      <trkpt lat="44.31303" lon="0.47237">
        <ele>99</ele>
        <time>2022-09-08T09:54:24.743Z</time>
      </trkpt>
      <trkpt lat="44.31307" lon="0.47216">
        <ele>98.7</ele>
        <time>2022-09-08T09:54:40.743Z</time>
      </trkpt>
      <trkpt lat="44.31314" lon="0.47197">
        <ele>98</ele>
        <time>2022-09-08T09:54:56.743Z</time>
      </trkpt>
      <trkpt lat="44.31337" lon="0.471">
        <ele>96</ele>
        <time>2022-09-08T09:56:00.743Z</time>
      </trkpt>
      <trkpt lat="44.31364" lon="0.46982">
        <ele>96</ele>
        <time>2022-09-08T09:57:04.743Z</time>
      </trkpt>
      <trkpt lat="44.31378" lon="0.46929">
        <ele>95</ele>
        <time>2022-09-08T09:57:36.743Z</time>
      </trkpt>
      <trkpt lat="44.31384" lon="0.46902">
        <ele>94.5</ele>
        <time>2022-09-08T09:57:52.743Z</time>
      </trkpt>
      <trkpt lat="44.31388" lon="0.46842">
        <ele>94.1</ele>
        <time>2022-09-08T09:58:24.743Z</time>
      </trkpt>
      <trkpt lat="44.31394" lon="0.46784">
        <ele>94.1</ele>
        <time>2022-09-08T09:58:56.743Z</time>
      </trkpt>
      <trkpt lat="44.31399" lon="0.46764">
        <ele>94</ele>
        <time>2022-09-08T09:59:08.743Z</time>
      </trkpt>
      <trkpt lat="44.31407" lon="0.46749">
        <ele>93.8</ele>
        <time>2022-09-08T09:59:16.743Z</time>
      </trkpt>
      <trkpt lat="44.31415" lon="0.46719">
        <ele>92.7</ele>
        <time>2022-09-08T09:59:32.743Z</time>
      </trkpt>
      <trkpt lat="44.31425" lon="0.46691">
        <ele>93.2</ele>
        <time>2022-09-08T09:59:48.743Z</time>
      </trkpt>
      <trkpt lat="44.31425" lon="0.46684">
        <ele>92.7</ele>
        <time>2022-09-08T09:59:52.743Z</time>
      </trkpt>
      <trkpt lat="44.31423" lon="0.46677">
        <ele>91.8</ele>
        <time>2022-09-08T09:59:56.743Z</time>
      </trkpt>
      <trkpt lat="44.31428" lon="0.46654">
        <ele>90.6</ele>
        <time>2022-09-08T10:00:12.743Z</time>
      </trkpt>
      <trkpt lat="44.31431" lon="0.46649">
        <ele>90.8</ele>
        <time>2022-09-08T10:00:20.743Z</time>
      </trkpt>
      <trkpt lat="44.31432" lon="0.46644">
        <ele>90.6</ele>
        <time>2022-09-08T10:00:28.743Z</time>
      </trkpt>
      <trkpt lat="44.31432" lon="0.46619">
        <ele>89.5</ele>
        <time>2022-09-08T10:00:44.743Z</time>
      </trkpt>
      <trkpt lat="44.31436" lon="0.46606">
        <ele>89.6</ele>
        <time>2022-09-08T10:00:52.743Z</time>
      </trkpt>
      <trkpt lat="44.31439" lon="0.466">
        <ele>89.8</ele>
        <time>2022-09-08T10:00:56.743Z</time>
      </trkpt>
      <trkpt lat="44.31448" lon="0.46561">
        <ele>90.4</ele>
        <time>2022-09-08T10:01:20.743Z</time>
      </trkpt>
      <trkpt lat="44.31448" lon="0.46552">
        <ele>90.3</ele>
        <time>2022-09-08T10:01:28.743Z</time>
      </trkpt>
      <trkpt lat="44.31452" lon="0.46541">
        <ele>90.2</ele>
        <time>2022-09-08T10:01:36.743Z</time>
      </trkpt>
      <trkpt lat="44.31456" lon="0.46535">
        <ele>90.5</ele>
        <time>2022-09-08T10:01:45.743Z</time>
      </trkpt>
    </trkseg>
  </trk>
</gpx>